createdAt,value
2022-11-07T00:00:11.273Z,45.47
2022-11-07T00:03:01.043Z,42.47
2022-11-07T00:05:28.581Z,39.25
2022-11-07T00:07:56.063Z,43.15
2022-11-07T00:10:25.548Z,45.15
2022-11-07T00:12:57.229Z,45.47
2022-11-07T00:15:24.630Z,47.25
2022-11-07T00:17:53.957Z,43.95
2022-11-07T00:20:23.417Z,40.97
2022-11-07T00:22:50.757Z,41.22
2022-11-07T00:25:20.184Z,49.58
2022-11-07T00:27:49.613Z,55.53
2022-11-07T00:30:17.112Z,54.10
2022-11-07T00:32:44.190Z,56.28
2022-11-07T00:35:11.733Z,56.42
2022-11-07T00:37:38.935Z,59.40
2022-11-07T00:40:09.283Z,62.42
2022-11-07T00:42:36.350Z,64.50
2022-11-07T00:45:06.629Z,67.47
2022-11-07T00:47:36.022Z,64.75
2022-11-07T00:50:04.225Z,65.85
2022-11-07T00:52:31.343Z,55.83
2022-11-07T00:55:06.540Z,61.60
2022-11-07T00:57:38.971Z,67.07
2022-11-07T01:00:07.145Z,68.72
2022-11-07T01:02:36.511Z,64.25
2022-11-07T01:05:12.584Z,64.32
2022-11-07T01:07:44.500Z,64.60
2022-11-07T01:10:11.879Z,68.65
2022-11-07T01:12:39.154Z,64.65
2022-11-07T01:15:09.583Z,66.82
2022-11-07T01:17:38.952Z,73.47
2022-11-07T01:20:07.113Z,67.32
2022-11-07T01:22:34.345Z,75.05
2022-11-07T01:25:01.933Z,66.20
2022-11-07T01:27:36.088Z,69.82
2022-11-07T01:32:30.988Z,66.13
2022-11-07T01:35:00.585Z,58.13
2022-11-07T01:37:35.583Z,64.47
2022-11-07T01:40:03.304Z,67.57
2022-11-07T01:42:30.587Z,59.80
2022-11-07T01:44:59.422Z,54.95
2022-11-07T01:47:37.827Z,56.72
2022-11-07T01:50:07.449Z,54.50
2022-11-07T01:52:41.974Z,62.58
2022-11-07T01:55:23.319Z,51.63
2022-11-07T01:58:01.984Z,55.55
2022-11-07T02:00:30.871Z,52.95
2022-11-07T02:03:09.646Z,50.58
2022-11-07T02:05:53.593Z,54.78
2022-11-07T02:08:21.960Z,46.22
2022-11-07T02:10:50.803Z,49.33
2022-11-07T02:13:30.940Z,46.65
2022-11-07T02:16:06.397Z,43.03
2022-11-07T02:18:40.327Z,47.28
2022-11-07T02:21:50.440Z,47.53
2022-11-07T02:24:31.704Z,50.80
2022-11-07T02:27:04.399Z,46.60
2022-11-07T02:29:36.925Z,45.60
2022-11-07T02:32:09.598Z,57.85
2022-11-07T02:37:15.110Z,57.92
2022-11-07T02:39:42.327Z,59.92
2022-11-07T02:42:10.054Z,58.72
2022-11-07T02:44:39.711Z,58.83
2022-11-07T02:47:07.205Z,57.05
2022-11-07T02:49:34.634Z,57.90
2022-11-07T02:52:04.247Z,63.65
2022-11-07T02:54:31.384Z,69.13
2022-11-07T02:56:59.163Z,60.17
2022-11-07T02:59:27.234Z,62.67
2022-11-07T03:01:54.946Z,60.80
2022-11-07T03:04:24.783Z,57.55
2022-11-07T03:06:54.453Z,59.85
2022-11-07T03:09:21.658Z,58.78
2022-11-07T03:11:53.999Z,57.88
2022-11-07T03:14:25.493Z,61.55
2022-11-07T03:16:53.051Z,57.03
2022-11-07T03:19:24.805Z,60.83
2022-11-07T03:21:56.402Z,56.53
2022-11-07T03:24:26.245Z,62.03
2022-11-07T03:26:56.574Z,55.30
2022-11-07T03:29:23.735Z,64.63
2022-11-07T03:31:51.087Z,59.80
2022-11-07T03:34:18.370Z,70.65
2022-11-07T03:36:45.824Z,59.17
2022-11-07T03:39:12.992Z,56.97
2022-11-07T03:41:40.380Z,61.70
2022-11-07T03:44:07.697Z,59.20
2022-11-07T03:46:35.054Z,53.97
2022-11-07T03:49:02.219Z,55.60
2022-11-07T03:51:32.122Z,60.42
2022-11-07T03:54:01.907Z,58.10
2022-11-07T03:56:32.080Z,55.35
2022-11-07T03:58:59.129Z,50.85
2022-11-07T04:01:26.584Z,50.15
2022-11-07T04:03:56.559Z,54.47
2022-11-07T04:08:57.932Z,49.17
2022-11-07T04:11:46.701Z,47.97
2022-11-07T04:14:32.108Z,59.80
2022-11-07T04:17:22.742Z,53.40
2022-11-07T04:19:52.489Z,50.78
2022-11-07T04:22:19.986Z,50.45
2022-11-07T04:24:47.136Z,50.30
2022-11-07T04:27:36.897Z,56.90
2022-11-07T04:30:19.630Z,47.35
2022-11-07T04:32:55.542Z,51.72
2022-11-07T04:35:25.658Z,55.05
2022-11-07T04:37:58.957Z,47.85
2022-11-07T04:40:26.653Z,51.63
2022-11-07T04:42:57.147Z,49.58
2022-11-07T04:45:24.304Z,53.70
2022-11-07T04:47:51.795Z,48.38
2022-11-07T04:50:19.937Z,51.45
2022-11-07T04:52:47.879Z,51.38
2022-11-07T04:55:24.005Z,50.75
2022-11-07T04:57:54.780Z,45.85
2022-11-07T05:00:22.603Z,53.15
2022-11-07T05:02:54.753Z,45.38
2022-11-07T05:05:24.175Z,40.80
2022-11-07T05:07:58.709Z,52.60
2022-11-07T05:10:28.188Z,52.50
2022-11-07T05:12:58.239Z,52.65
2022-11-07T05:15:25.352Z,51.50
2022-11-07T05:17:54.942Z,49.38
2022-11-07T05:20:34.745Z,50.72
2022-11-07T05:23:20.666Z,51.08
2022-11-07T05:25:51.816Z,51.10
2022-11-07T05:28:35.369Z,53.97
2022-11-07T05:31:06.088Z,55.30
2022-11-07T05:33:36.061Z,49.20
2022-11-07T05:36:15.270Z,48.20
2022-11-07T05:38:44.445Z,54.20
2022-11-07T05:41:14.912Z,51.45
2022-11-07T05:43:45.736Z,50.15
2022-11-07T05:46:15.816Z,60.72
2022-11-07T05:48:43.257Z,52.25
2022-11-07T05:51:12.646Z,47.60
2022-11-07T05:53:40.069Z,45.97
2022-11-07T05:56:07.412Z,56.75
2022-11-07T05:58:35.245Z,53.67
2022-11-07T06:01:05.934Z,55.28
2022-11-07T06:03:35.724Z,53.17
2022-11-07T06:06:02.874Z,56.78
2022-11-07T06:08:30.278Z,48.75
2022-11-07T06:10:57.531Z,54.08
2022-11-07T06:13:24.917Z,55.03
2022-11-07T06:15:51.998Z,49.13
2022-11-07T06:18:22.820Z,48.88
2022-11-07T06:20:50.166Z,51.10
2022-11-07T06:23:18.173Z,46.97
2022-11-07T06:25:46.149Z,44.38
2022-11-07T06:28:18.351Z,48.70
2022-11-07T06:30:45.525Z,51.22
2022-11-07T06:33:19.987Z,49.30
2022-11-07T06:35:49.921Z,53.10
2022-11-07T06:38:19.742Z,51.47
2022-11-07T06:40:51.546Z,55.33
2022-11-07T06:43:21.737Z,48.80
2022-11-07T06:45:48.853Z,55.60
2022-11-07T06:48:18.518Z,44.53
2022-11-07T06:50:50.403Z,45.25
2022-11-07T06:53:18.162Z,48.45
2022-11-07T06:55:45.702Z,46.20
2022-11-07T06:58:15.657Z,47.83
2022-11-07T07:00:45.090Z,43.33
2022-11-07T07:03:12.827Z,47.35
2022-11-07T07:05:40.437Z,40.67
2022-11-07T07:08:08.112Z,48.67
2022-11-07T07:10:41.034Z,48.20
2022-11-07T07:13:12.608Z,45.10
2022-11-07T07:15:50.335Z,48.35
2022-11-07T07:18:19.468Z,38.90
2022-11-07T07:20:50.051Z,40.13
2022-11-07T07:23:19.784Z,41.28
2022-11-07T07:25:49.513Z,42.67
2022-11-07T07:28:16.949Z,41.92
2022-11-07T07:30:51.549Z,46.90
2022-11-07T07:33:22.248Z,34.72
2022-11-07T07:35:49.413Z,40.75
2022-11-07T07:38:19.668Z,36.15
2022-11-07T07:40:49.441Z,35.53
2022-11-07T07:43:17.069Z,37.42
2022-11-07T07:45:44.346Z,47.50
2022-11-07T07:48:16.478Z,32.33
2022-11-07T07:50:43.584Z,43.15
2022-11-07T07:53:10.935Z,42.17
2022-11-07T07:55:40.874Z,38.00
2022-11-07T07:58:08.459Z,46.92
2022-11-07T08:00:35.786Z,39.58
2022-11-07T08:03:05.426Z,38.95
2022-11-07T08:05:37.789Z,33.00
2022-11-07T08:08:09.375Z,27.77
2022-11-07T08:10:43.111Z,37.65
2022-11-07T08:15:38.366Z,41.85
2022-11-07T08:18:06.093Z,37.28
2022-11-07T08:20:33.391Z,35.03
2022-11-07T08:23:08.641Z,38.17
2022-11-07T08:25:43.039Z,33.70
2022-11-07T08:28:10.391Z,33.17
2022-11-07T08:30:37.550Z,32.25
2022-11-07T08:33:07.226Z,42.58
2022-11-07T08:35:41.266Z,30.23
2022-11-07T08:38:09.976Z,34.35
2022-11-07T08:40:41.295Z,30.58
2022-11-07T08:43:09.124Z,31.77
2022-11-07T08:45:38.667Z,33.83
2022-11-07T08:48:06.330Z,33.80
2022-11-07T08:50:35.961Z,31.65
2022-11-07T08:53:03.708Z,28.35
2022-11-07T08:55:33.178Z,25.38
2022-11-07T08:58:05.648Z,25.35
2022-11-07T09:00:36.493Z,33.47
2022-11-07T09:05:57.542Z,26.88
2022-11-07T09:08:35.936Z,22.20
2022-11-07T09:11:07.076Z,27.95
2022-11-07T09:13:35.223Z,30.98
2022-11-07T09:16:04.138Z,29.10
2022-11-07T09:18:34.917Z,29.60
2022-11-07T09:21:02.812Z,28.17
2022-11-07T09:23:33.218Z,26.63
2022-11-07T09:26:05.657Z,23.02
2022-11-07T09:28:35.537Z,23.67
2022-11-07T09:31:10.010Z,24.92
2022-11-07T09:33:37.478Z,20.92
2022-11-07T09:36:05.554Z,20.55
2022-11-07T09:38:41.948Z,23.88
2022-11-07T09:41:55.839Z,25.90
2022-11-07T09:44:36.603Z,20.55
2022-11-07T09:47:17.184Z,33.30
2022-11-07T09:49:51.571Z,21.92
2022-11-07T09:52:42.324Z,19.75
2022-11-07T09:55:15.727Z,22.33
2022-11-07T09:57:43.384Z,22.75
2022-11-07T10:00:26.802Z,22.85
2022-11-07T10:03:00.183Z,35.92
2022-11-07T10:05:57.013Z,21.83
2022-11-07T10:08:52.836Z,16.20
2022-11-07T10:11:26.872Z,21.35
2022-11-07T10:14:15.340Z,18.98
2022-11-07T10:17:14.413Z,23.92
2022-11-07T10:19:59.062Z,20.23
2022-11-07T10:22:43.753Z,20.08
2022-11-07T10:25:44.657Z,17.95
2022-11-07T10:28:18.144Z,18.38
2022-11-07T10:30:49.111Z,17.50
2022-11-07T10:33:34.822Z,19.58
2022-11-07T10:36:11.578Z,19.85
2022-11-07T10:38:42.355Z,15.23
2022-11-07T10:41:23.961Z,23.38
2022-11-07T10:44:10.371Z,18.25
2022-11-07T10:46:46.625Z,20.65
2022-11-07T10:49:30.102Z,20.27
2022-11-07T10:52:17.355Z,21.95
2022-11-07T10:54:46.495Z,14.93
2022-11-07T10:57:23.038Z,28.10
2022-11-07T11:00:00.051Z,18.88
2022-11-07T11:02:31.293Z,17.52
2022-11-07T11:05:03.567Z,20.00
2022-11-07T11:07:36.223Z,18.40
2022-11-07T11:10:17.325Z,19.83
2022-11-07T11:12:49.545Z,20.83
2022-11-07T11:15:24.064Z,11.88
2022-11-07T11:18:02.892Z,15.37
2022-11-07T11:20:56.780Z,16.48
2022-11-07T11:23:26.985Z,13.02
2022-11-07T11:26:15.921Z,17.08
2022-11-07T11:28:47.440Z,19.38
2022-11-07T11:31:18.493Z,13.20
2022-11-07T11:33:55.365Z,13.77
2022-11-07T11:36:32.127Z,23.52
2022-11-07T11:39:03.852Z,14.57
2022-11-07T11:41:54.220Z,15.10
2022-11-07T11:44:38.077Z,16.80
2022-11-07T11:47:18.869Z,11.32
2022-11-07T11:50:02.913Z,13.10
2022-11-07T11:52:33.641Z,14.15
2022-11-07T11:55:03.533Z,21.27
2022-11-07T11:57:45.319Z,18.17
2022-11-07T12:00:22.655Z,13.97
2022-11-07T12:03:34.376Z,11.68
2022-11-07T12:06:01.775Z,10.13
2022-11-07T12:08:49.370Z,12.07
2022-11-07T12:11:38.333Z,15.80
2022-11-07T12:14:38.353Z,11.45
2022-11-07T12:17:24.219Z,12.13
2022-11-07T12:19:51.494Z,8.00
2022-11-07T12:22:35.960Z,11.80
2022-11-07T12:25:23.816Z,8.38
2022-11-07T12:28:12.839Z,11.43
2022-11-07T12:31:09.603Z,8.65
2022-11-07T12:33:36.688Z,11.70
2022-11-07T12:36:39.767Z,10.90
2022-11-07T12:39:07.447Z,8.80
2022-11-07T12:41:58.726Z,7.53
2022-11-07T12:44:46.649Z,15.02
2022-11-07T12:47:56.835Z,11.95
2022-11-07T12:50:45.456Z,10.50
2022-11-07T12:53:21.729Z,10.05
2022-11-07T12:56:28.204Z,19.15
2022-11-07T12:59:04.181Z,12.27
2022-11-07T13:01:45.342Z,13.88
2022-11-07T13:04:27.409Z,20.95
2022-11-07T13:07:32.042Z,17.30
2022-11-07T13:10:40.186Z,23.88
2022-11-07T13:13:40.757Z,23.70
2022-11-07T13:16:23.895Z,18.95
2022-11-07T13:18:52.154Z,51.05
2022-11-07T13:21:21.995Z,17.80
2022-11-07T13:23:51.889Z,15.68
2022-11-07T13:29:34.604Z,17.20
2022-11-07T13:32:09.147Z,20.05
2022-11-07T13:34:52.020Z,17.02
2022-11-07T13:37:25.310Z,22.00
2022-11-07T13:40:03.710Z,40.63
2022-11-07T13:42:33.812Z,25.30
2022-11-07T13:45:21.223Z,28.10
2022-11-07T13:47:54.990Z,21.73
2022-11-07T13:50:44.225Z,22.88
2022-11-07T13:53:30.495Z,19.42
2022-11-07T13:56:09.944Z,17.60
2022-11-07T13:58:41.843Z,18.40
2022-11-07T14:01:11.584Z,22.48
2022-11-07T14:03:42.050Z,20.08
2022-11-07T14:06:14.158Z,29.50
2022-11-07T14:08:48.422Z,26.67
2022-11-07T14:11:22.270Z,19.92
2022-11-07T14:13:54.344Z,19.90
2022-11-07T14:16:27.134Z,22.50
2022-11-07T14:18:59.398Z,25.02
2022-11-07T14:21:33.298Z,27.33
2022-11-07T14:24:31.412Z,27.83
2022-11-07T14:27:05.513Z,46.80
2022-11-07T14:29:33.431Z,42.95
2022-11-07T14:32:03.836Z,33.17
2022-11-07T14:34:34.879Z,24.83
2022-11-07T14:37:08.666Z,24.92
2022-11-07T14:39:39.269Z,22.50
2022-11-07T14:42:15.728Z,24.10
2022-11-07T14:44:54.436Z,20.40
2022-11-07T14:47:32.459Z,18.48
2022-11-07T14:50:04.211Z,35.60
2022-11-07T14:53:03.530Z,22.27
2022-11-07T14:55:33.279Z,23.83
2022-11-07T14:58:05.985Z,19.42
2022-11-07T15:00:35.277Z,29.13
2022-11-07T15:03:02.852Z,18.33
2022-11-07T15:05:44.324Z,18.10
2022-11-07T15:08:33.485Z,24.25
2022-11-07T15:11:15.541Z,19.90
2022-11-07T15:13:43.068Z,19.80
2022-11-07T15:16:18.839Z,15.77
2022-11-07T15:18:57.830Z,16.25
2022-11-07T15:21:39.031Z,15.45
2022-11-07T15:24:41.185Z,16.73
2022-11-07T15:27:28.409Z,14.90
2022-11-07T15:30:01.795Z,16.00
2022-11-07T15:32:41.594Z,15.93
2022-11-07T15:38:06.311Z,16.83
2022-11-07T15:40:33.559Z,18.48
2022-11-07T15:43:01.049Z,20.63
2022-11-07T15:45:31.223Z,18.23
2022-11-07T15:48:01.289Z,20.63
2022-11-07T15:50:28.451Z,19.63
2022-11-07T15:53:00.242Z,17.23
2022-11-07T15:55:27.506Z,16.35
2022-11-07T15:57:55.006Z,46.83
2022-11-07T16:00:26.213Z,150.68
2022-11-07T16:02:54.283Z,92.80
2022-11-07T16:05:23.770Z,24.67
2022-11-07T16:07:51.193Z,16.23
2022-11-07T16:10:25.987Z,31.63
2022-11-07T16:13:00.883Z,21.50
2022-11-07T16:15:33.454Z,26.50
2022-11-07T16:18:05.660Z,27.10
2022-11-07T16:20:37.969Z,22.98
2022-11-07T16:23:12.861Z,13.13
2022-11-07T16:25:44.522Z,21.33
2022-11-07T16:28:21.105Z,25.50
2022-11-07T16:30:50.693Z,16.08
2022-11-07T16:33:21.261Z,26.77
2022-11-07T16:35:53.346Z,23.13
2022-11-07T16:38:25.069Z,21.45
2022-11-07T16:40:53.192Z,17.88
2022-11-07T16:43:20.975Z,20.38
2022-11-07T16:45:56.442Z,27.85
2022-11-07T16:48:26.862Z,23.63
2022-11-07T16:50:55.455Z,25.38
2022-11-07T16:53:28.078Z,29.15
2022-11-07T16:56:03.200Z,25.17
2022-11-07T16:58:34.155Z,20.73
2022-11-07T17:01:10.180Z,24.45
2022-11-07T17:03:37.849Z,29.23
2022-11-07T17:06:05.760Z,23.60
2022-11-07T17:08:43.864Z,26.75
2022-11-07T17:11:17.536Z,27.83
2022-11-07T17:13:47.868Z,25.67
2022-11-07T17:16:27.791Z,25.20
2022-11-07T17:18:59.511Z,28.33
2022-11-07T17:21:29.614Z,27.45
2022-11-07T17:23:58.994Z,27.35
2022-11-07T17:26:29.836Z,30.67
2022-11-07T17:28:59.789Z,29.23
2022-11-07T17:31:26.986Z,27.48
2022-11-07T17:33:54.358Z,30.23
2022-11-07T17:36:51.373Z,31.17
2022-11-07T17:39:24.343Z,33.17
2022-11-07T17:41:51.782Z,36.05
2022-11-07T17:44:19.612Z,39.88
2022-11-07T17:46:49.957Z,36.72
2022-11-07T17:49:22.042Z,38.28
2022-11-07T17:51:54.577Z,38.20
2022-11-07T17:54:26.686Z,40.30
2022-11-07T17:56:56.478Z,29.45
2022-11-07T17:59:26.353Z,29.98
2022-11-07T18:01:53.524Z,43.03
2022-11-07T18:04:23.487Z,30.60
2022-11-07T18:06:50.721Z,32.15
2022-11-07T18:09:18.299Z,28.83
2022-11-07T18:11:47.722Z,27.90
2022-11-07T18:14:15.211Z,23.88
2022-11-07T18:16:42.421Z,31.10
2022-11-07T18:19:12.154Z,27.98
2022-11-07T18:21:40.004Z,29.50
2022-11-07T18:24:07.778Z,31.33
2022-11-07T18:26:38.354Z,41.78
2022-11-07T18:29:11.608Z,32.95
2022-11-07T18:31:42.419Z,34.42
2022-11-07T18:34:13.756Z,26.70
2022-11-07T18:36:42.106Z,33.70
2022-11-07T18:39:26.383Z,30.97
2022-11-07T18:41:56.688Z,30.27
2022-11-07T18:44:28.740Z,25.05
2022-11-07T18:46:58.482Z,34.40
2022-11-07T18:49:25.904Z,27.92
2022-11-07T18:51:53.400Z,33.33
2022-11-07T18:54:28.167Z,33.75
2022-11-07T18:56:55.406Z,35.03
2022-11-07T18:59:23.237Z,36.65
2022-11-07T19:01:51.219Z,30.50
2022-11-07T19:04:21.363Z,31.95
2022-11-07T19:07:00.097Z,31.83
2022-11-07T19:09:30.838Z,29.95
2022-11-07T19:12:01.164Z,35.67
2022-11-07T19:14:34.179Z,40.13
2022-11-07T19:17:05.158Z,37.03
2022-11-07T19:19:32.978Z,34.58
2022-11-07T19:24:34.504Z,40.40
2022-11-07T19:27:03.846Z,35.30
2022-11-07T19:29:36.472Z,41.15
2022-11-07T19:32:06.603Z,44.50
2022-11-07T19:34:38.521Z,53.67
2022-11-07T19:37:08.309Z,54.05
2022-11-07T19:39:38.191Z,47.88
2022-11-07T19:42:06.038Z,44.45
2022-11-07T19:44:34.565Z,39.65
2022-11-07T19:47:06.779Z,38.28
2022-11-07T19:49:36.807Z,42.28
2022-11-07T19:52:06.525Z,47.35
2022-11-07T19:54:38.322Z,46.28
2022-11-07T19:57:06.149Z,43.85
2022-11-07T19:59:33.863Z,56.22
2022-11-07T20:02:31.103Z,46.35
2022-11-07T20:04:54.112Z,59.50
2022-11-07T20:07:23.693Z,53.83
2022-11-07T20:09:51.155Z,50.78
2022-11-07T20:12:20.385Z,58.03
2022-11-07T20:14:50.054Z,51.20
2022-11-07T20:19:51.662Z,40.38
2022-11-07T20:22:24.589Z,32.95
2022-11-07T20:24:54.577Z,34.45
2022-11-07T20:27:21.858Z,39.38
2022-11-07T20:29:50.883Z,39.22
2022-11-07T20:32:21.082Z,36.60
2022-11-07T20:34:53.828Z,38.47
2022-11-07T20:37:21.907Z,44.28
2022-11-07T20:39:50.533Z,41.05
2022-11-07T20:42:18.473Z,40.40
2022-11-07T20:44:49.907Z,39.50
2022-11-07T20:47:17.297Z,33.58
2022-11-07T20:49:44.974Z,34.17
2022-11-07T20:52:12.129Z,38.72
2022-11-07T20:54:42.457Z,38.35
2022-11-07T20:57:11.556Z,35.33
2022-11-07T20:59:41.246Z,40.20
2022-11-07T21:02:14.882Z,32.38
2022-11-07T21:05:11.300Z,47.35
2022-11-07T21:07:34.302Z,35.10
2022-11-07T21:10:01.694Z,36.42
2022-11-07T21:12:29.185Z,41.67
2022-11-07T21:15:00.101Z,43.03
2022-11-07T21:17:27.547Z,48.22
2022-11-07T21:19:57.200Z,52.50
2022-11-07T21:22:29.727Z,50.45
2022-11-07T21:24:59.729Z,56.83
2022-11-07T21:27:26.907Z,57.25
2022-11-07T21:30:00.801Z,48.30
2022-11-07T21:32:31.043Z,54.50
2022-11-07T21:34:58.432Z,53.20
2022-11-07T21:37:25.645Z,54.53
2022-11-07T21:39:53.201Z,46.45
2022-11-07T21:42:20.339Z,46.47
2022-11-07T21:44:47.805Z,40.35
2022-11-07T21:47:15.185Z,40.28
2022-11-07T21:49:47.177Z,42.55
2022-11-07T21:52:14.270Z,36.65
2022-11-07T21:54:46.693Z,34.25
2022-11-07T21:57:16.680Z,35.42
2022-11-07T21:59:46.220Z,38.78
2022-11-07T22:02:18.271Z,33.40
2022-11-07T22:04:45.823Z,35.65
2022-11-07T22:07:12.878Z,36.05
2022-11-07T22:09:42.461Z,42.15
2022-11-07T22:12:12.086Z,39.40
2022-11-07T22:14:39.724Z,37.92
2022-11-07T22:17:06.787Z,34.85
2022-11-07T22:19:36.545Z,33.55
2022-11-07T22:22:03.960Z,34.25
2022-11-07T22:24:31.705Z,31.90
2022-11-07T22:27:06.772Z,31.75
2022-11-07T22:29:36.376Z,32.28
2022-11-07T22:32:06.126Z,34.92
2022-11-07T22:34:33.613Z,37.10
2022-11-07T22:37:00.706Z,31.75
2022-11-07T22:39:28.214Z,29.35
2022-11-07T22:41:55.330Z,27.75
2022-11-07T22:44:22.789Z,33.30
2022-11-07T22:46:50.295Z,27.80
2022-11-07T22:49:19.913Z,23.48
2022-11-07T22:51:49.181Z,24.45
2022-11-07T22:54:18.540Z,29.17
2022-11-07T22:56:49.955Z,25.52
2022-11-07T22:59:17.799Z,32.00
2022-11-07T23:01:47.588Z,30.20
2022-11-07T23:04:18.071Z,28.13
2022-11-07T23:06:45.538Z,25.83
2022-11-07T23:09:14.798Z,23.77
2022-11-07T23:11:46.975Z,27.13
2022-11-07T23:14:20.345Z,29.45
2022-11-07T23:16:53.343Z,29.27
2022-11-07T23:19:25.591Z,26.48
2022-11-07T23:21:55.106Z,25.98
2022-11-07T23:24:23.461Z,28.05
2022-11-07T23:26:50.582Z,26.63
2022-11-07T23:29:24.020Z,27.27
2022-11-07T23:31:52.364Z,25.25
2022-11-07T23:34:22.778Z,22.95
2022-11-07T23:36:51.206Z,21.33
2022-11-07T23:39:21.568Z,25.52
2022-11-07T23:41:48.736Z,25.42
2022-11-07T23:44:20.777Z,25.77
2022-11-07T23:47:06.833Z,24.38
2022-11-07T23:49:55.097Z,26.30
2022-11-07T23:52:22.342Z,27.02
2022-11-07T23:55:08.184Z,24.02
2022-11-07T23:57:56.921Z,20.98
